createdAt,value
2017-11-21T00:02:00.506Z,2.17
2017-11-21T00:04:28.252Z,2.13
2017-11-21T00:06:56.012Z,1.63
2017-11-21T00:09:23.687Z,2.63
2017-11-21T00:11:52.324Z,2.23
2017-11-21T00:14:20.071Z,2.60
2017-11-21T00:16:47.830Z,2.07
2017-11-21T00:19:15.557Z,2.50
2017-11-21T00:21:43.292Z,3.57
2017-11-21T00:24:10.996Z,1.90
2017-11-21T00:26:38.747Z,3.50
2017-11-21T00:29:06.492Z,2.13
2017-11-21T00:31:34.201Z,2.20
2017-11-21T00:34:01.875Z,3.73
2017-11-21T00:36:29.622Z,2.43
2017-11-21T00:38:57.295Z,2.00
2017-11-21T00:41:25.165Z,2.20
2017-11-21T00:43:52.834Z,2.30
2017-11-21T00:46:20.580Z,1.53
2017-11-21T00:48:48.525Z,2.37
2017-11-21T00:51:16.264Z,2.53
2017-11-21T00:53:43.953Z,5.20
2017-11-21T00:56:11.688Z,1.83
2017-11-21T00:58:39.408Z,4.00
2017-11-21T01:01:07.155Z,1.47
2017-11-21T01:03:34.938Z,1.60
2017-11-21T01:06:02.617Z,1.57
2017-11-21T01:08:30.340Z,3.37
2017-11-21T01:10:58.035Z,1.93
2017-11-21T01:13:25.819Z,4.33
2017-11-21T01:15:53.509Z,2.83
2017-11-21T01:18:21.293Z,1.77
2017-11-21T01:20:49.058Z,1.77
2017-11-21T01:23:16.758Z,2.07
2017-11-21T01:25:44.954Z,2.27
2017-11-21T01:28:12.683Z,2.67
2017-11-21T01:30:40.449Z,6.50
2017-11-21T01:33:08.215Z,5.27
2017-11-21T01:35:35.919Z,3.07
2017-11-21T01:38:03.707Z,3.17
2017-11-21T01:40:31.425Z,3.57
2017-11-21T01:42:59.178Z,2.97
2017-11-21T01:45:26.939Z,4.73
2017-11-21T01:47:54.688Z,4.23
2017-11-21T01:50:22.419Z,5.13
2017-11-21T01:52:50.094Z,5.40
2017-11-21T01:55:17.826Z,4.50
2017-11-21T01:57:45.537Z,4.03
2017-11-21T02:00:13.217Z,4.43
2017-11-21T02:02:40.996Z,2.93
2017-11-21T02:05:08.680Z,3.27
2017-11-21T02:07:36.405Z,2.70
2017-11-21T02:10:04.133Z,4.20
2017-11-21T02:12:31.829Z,2.33
2017-11-21T02:14:59.641Z,1.80
2017-11-21T02:17:27.342Z,2.47
2017-11-21T02:19:55.137Z,2.73
2017-11-21T02:22:22.968Z,2.00
2017-11-21T02:24:50.734Z,1.30
2017-11-21T02:27:18.504Z,2.20
2017-11-21T02:29:46.308Z,2.50
2017-11-21T02:32:14.055Z,2.83
2017-11-21T02:34:41.773Z,5.67
2017-11-21T02:37:09.524Z,2.77
2017-11-21T02:39:37.192Z,1.90
2017-11-21T02:42:04.968Z,4.13
2017-11-21T02:44:32.895Z,4.40
2017-11-21T02:47:01.708Z,2.47
2017-11-21T02:49:29.474Z,2.20
2017-11-21T02:51:57.432Z,2.00
2017-11-21T02:54:25.176Z,1.87
2017-11-21T02:56:52.921Z,1.50
2017-11-21T02:59:20.659Z,1.27
2017-11-21T03:01:48.423Z,2.57
2017-11-21T03:04:16.077Z,2.03
2017-11-21T03:06:43.793Z,3.10
2017-11-21T03:09:11.549Z,4.10
2017-11-21T03:11:39.349Z,1.60
2017-11-21T03:14:07.105Z,2.00
2017-11-21T03:16:34.820Z,3.17
2017-11-21T03:19:02.599Z,2.53
2017-11-21T03:21:42.047Z,2.57
2017-11-21T03:24:21.453Z,1.67
2017-11-21T03:26:49.315Z,1.70
2017-11-21T03:29:17.186Z,2.53
2017-11-21T03:31:44.860Z,1.33
2017-11-21T03:34:12.557Z,1.43
2017-11-21T03:36:40.319Z,1.30
2017-11-21T03:39:08.053Z,1.53
2017-11-21T03:41:35.823Z,1.10
2017-11-21T03:44:03.540Z,0.83
2017-11-21T03:46:31.407Z,1.43
2017-11-21T03:48:59.196Z,1.53
2017-11-21T03:51:26.936Z,1.10
2017-11-21T03:53:54.605Z,1.10
2017-11-21T03:56:22.291Z,1.43
2017-11-21T03:58:50.060Z,1.10
2017-11-21T04:01:17.740Z,1.10
2017-11-21T04:03:45.460Z,0.93
2017-11-21T04:06:13.279Z,1.80
2017-11-21T04:08:41.026Z,1.30
2017-11-21T04:11:08.783Z,1.67
2017-11-21T04:13:36.694Z,2.30
2017-11-21T04:16:04.440Z,0.87
2017-11-21T04:18:32.111Z,1.37
2017-11-21T04:20:59.805Z,3.20
2017-11-21T04:23:27.569Z,0.60
2017-11-21T04:25:55.311Z,0.97
2017-11-21T04:28:23.033Z,0.50
2017-11-21T04:30:50.751Z,0.50
2017-11-21T04:33:18.529Z,0.43
2017-11-21T04:35:46.208Z,0.43
2017-11-21T04:38:13.981Z,0.40
2017-11-21T04:40:41.736Z,0.60
2017-11-21T04:43:09.431Z,0.63
2017-11-21T04:45:37.177Z,1.10
2017-11-21T04:48:04.932Z,0.50
2017-11-21T04:50:32.598Z,0.77
2017-11-21T04:53:00.334Z,0.57
2017-11-21T04:55:28.236Z,0.90
2017-11-21T04:57:55.932Z,0.43
2017-11-21T05:00:23.740Z,0.40
2017-11-21T05:02:51.604Z,0.83
2017-11-21T05:05:19.309Z,0.97
2017-11-21T05:07:47.002Z,4.23
2017-11-21T05:10:14.724Z,0.43
2017-11-21T05:12:42.414Z,0.50
2017-11-21T05:15:10.148Z,0.50
2017-11-21T05:17:37.842Z,0.30
2017-11-21T05:20:05.609Z,0.60
2017-11-21T05:22:33.412Z,0.50
2017-11-21T05:25:01.193Z,0.90
2017-11-21T05:27:28.947Z,0.30
2017-11-21T05:29:56.728Z,0.40
2017-11-21T05:35:30.442Z,0.73
2017-11-21T05:37:58.184Z,1.40
2017-11-21T05:40:25.952Z,0.50
2017-11-21T05:42:53.672Z,0.40
2017-11-21T05:45:21.399Z,0.50
2017-11-21T05:47:49.106Z,0.50
2017-11-21T05:50:17.795Z,0.40
2017-11-21T05:52:45.600Z,0.90
2017-11-21T05:55:13.306Z,1.70
2017-11-21T05:57:41.124Z,0.40
2017-11-21T06:00:08.894Z,0.63
2017-11-21T06:02:36.581Z,0.30
2017-11-21T06:05:04.312Z,0.30
2017-11-21T06:07:32.014Z,0.30
2017-11-21T06:09:59.765Z,0.40
2017-11-21T06:12:27.786Z,2.67
2017-11-21T06:14:55.464Z,9.53
2017-11-21T06:17:23.222Z,30.13
2017-11-21T06:19:50.964Z,7.77
2017-11-21T06:22:18.732Z,1.00
2017-11-21T06:24:46.469Z,1.07
2017-11-21T06:27:14.173Z,0.37
2017-11-21T06:29:42.193Z,31.30
2017-11-21T06:32:09.964Z,0.73
2017-11-21T06:34:37.679Z,1.63
2017-11-21T06:37:05.421Z,0.87
2017-11-21T06:39:33.098Z,1.70
2017-11-21T06:42:00.833Z,2.50
2017-11-21T06:44:28.522Z,1.37
2017-11-21T06:46:56.273Z,2.20
2017-11-21T06:49:23.992Z,3.90
2017-11-21T06:51:51.697Z,0.70
2017-11-21T06:54:19.435Z,0.40
2017-11-21T06:56:47.187Z,0.67
2017-11-21T06:59:14.927Z,1.77
2017-11-21T07:01:42.615Z,0.37
2017-11-21T07:04:10.340Z,1.00
2017-11-21T07:06:38.816Z,0.37
2017-11-21T07:09:06.586Z,1.50
2017-11-21T07:11:34.307Z,0.77
2017-11-21T07:14:02.099Z,1.10
2017-11-21T07:16:29.794Z,0.40
2017-11-21T07:18:57.563Z,2.97
2017-11-21T07:21:25.268Z,2.43
2017-11-21T07:23:53.005Z,4.20
2017-11-21T07:26:20.760Z,2.13
2017-11-21T07:28:48.491Z,4.07
2017-11-21T07:31:16.277Z,3.70
2017-11-21T07:33:43.983Z,5.70
2017-11-21T07:36:11.722Z,5.20
2017-11-21T07:38:39.372Z,3.83
2017-11-21T07:41:07.163Z,5.87
2017-11-21T07:43:34.865Z,5.60
2017-11-21T07:46:02.684Z,8.30
2017-11-21T07:48:30.450Z,12.83
2017-11-21T07:50:59.202Z,16.53
2017-11-21T07:53:27.001Z,8.97
2017-11-21T07:55:54.868Z,3.33
2017-11-21T07:58:22.616Z,1.57
2017-11-21T08:00:50.370Z,0.90
2017-11-21T08:03:18.093Z,1.30
2017-11-21T08:05:45.798Z,7.97
2017-11-21T08:08:13.548Z,16.27
2017-11-21T08:10:41.339Z,19.30
2017-11-21T08:13:09.127Z,38.00
2017-11-21T08:15:36.901Z,12.37
2017-11-21T08:18:04.654Z,1.80
2017-11-21T08:20:32.389Z,0.57
2017-11-21T08:23:00.112Z,2.80
2017-11-21T08:25:27.846Z,4.47
2017-11-21T08:27:55.572Z,7.10
2017-11-21T08:30:23.373Z,32.83
2017-11-21T08:32:51.050Z,28.67
2017-11-21T08:35:18.769Z,11.73
2017-11-21T08:37:46.518Z,10.40
2017-11-21T08:40:14.290Z,10.00
2017-11-21T08:42:41.987Z,4.03
2017-11-21T08:45:09.715Z,11.47
2017-11-21T08:47:37.773Z,44.07
2017-11-21T08:50:05.487Z,30.20
2017-11-21T08:52:33.236Z,42.07
2017-11-21T08:55:01.045Z,24.20
2017-11-21T08:57:28.795Z,29.10
2017-11-21T08:59:56.605Z,52.70
2017-11-21T09:02:24.329Z,102.50
2017-11-21T09:04:52.818Z,50.50
2017-11-21T09:07:20.658Z,13.87
2017-11-21T09:09:48.406Z,20.33
2017-11-21T09:12:16.187Z,26.90
2017-11-21T09:14:43.874Z,12.13
2017-11-21T09:17:11.600Z,5.73
2017-11-21T09:19:39.320Z,4.07
2017-11-21T09:22:07.047Z,5.63
2017-11-21T09:24:34.735Z,5.17
2017-11-21T09:27:03.699Z,4.93
2017-11-21T09:29:31.548Z,2.67
2017-11-21T09:31:59.232Z,4.63
2017-11-21T09:34:26.936Z,5.53
2017-11-21T09:36:54.683Z,7.43
2017-11-21T09:39:22.441Z,4.53
2017-11-21T09:41:50.249Z,2.70
2017-11-21T09:44:18.004Z,4.90
2017-11-21T09:46:45.724Z,3.40
2017-11-21T09:49:13.452Z,3.73
2017-11-21T09:51:41.147Z,12.33
2017-11-21T09:54:08.912Z,4.67
2017-11-21T09:56:36.713Z,5.53
2017-11-21T09:59:04.411Z,13.37
2017-11-21T10:01:32.118Z,5.77
2017-11-21T10:03:59.783Z,7.00
2017-11-21T10:06:27.545Z,4.00
2017-11-21T10:08:55.246Z,2.87
2017-11-21T10:11:22.963Z,7.47
2017-11-21T10:13:50.720Z,17.47
2017-11-21T10:16:18.499Z,15.23
2017-11-21T10:18:46.266Z,10.00
2017-11-21T10:21:13.982Z,6.10
2017-11-21T10:23:41.734Z,5.63
2017-11-21T10:26:09.514Z,7.00
2017-11-21T10:28:37.309Z,13.50
2017-11-21T10:31:05.132Z,10.43
2017-11-21T10:33:32.908Z,8.07
2017-11-21T10:36:00.592Z,10.30
2017-11-21T10:38:28.386Z,12.47
2017-11-21T10:40:56.100Z,14.10
2017-11-21T10:43:23.849Z,7.70
2017-11-21T10:45:51.676Z,7.60
2017-11-21T10:48:19.380Z,3.87
2017-11-21T10:50:47.117Z,2.53
2017-11-21T10:53:14.869Z,3.13
2017-11-21T10:55:42.631Z,4.90
2017-11-21T10:58:10.361Z,2.97
2017-11-21T11:00:38.146Z,7.63
2017-11-21T11:03:05.915Z,11.47
2017-11-21T11:05:33.747Z,4.63
2017-11-21T11:08:01.533Z,8.70
2017-11-21T11:10:29.707Z,3.60
2017-11-21T11:12:57.487Z,2.30
2017-11-21T11:15:25.207Z,3.17
2017-11-21T11:17:53.005Z,2.87
2017-11-21T11:20:20.785Z,6.50
2017-11-21T11:22:48.600Z,2.40
2017-11-21T11:25:16.652Z,1.83
2017-11-21T11:27:44.506Z,7.33
2017-11-21T11:30:12.818Z,3.53
2017-11-21T11:32:40.599Z,1.70
2017-11-21T11:35:08.360Z,2.70
2017-11-21T11:37:36.220Z,1.93
2017-11-21T11:40:04.031Z,1.80
2017-11-21T11:42:31.825Z,11.60
2017-11-21T11:44:59.577Z,55.50
2017-11-21T11:47:27.625Z,37.20
2017-11-21T11:49:55.490Z,6.97
2017-11-21T11:52:23.261Z,5.67
2017-11-21T11:54:51.100Z,4.30
2017-11-21T11:57:18.874Z,3.63
2017-11-21T11:59:46.692Z,4.67
2017-11-21T12:02:14.743Z,16.77
2017-11-21T12:04:42.582Z,6.80
2017-11-21T12:07:10.398Z,8.10
2017-11-21T12:09:38.259Z,7.70
2017-11-21T12:12:06.172Z,4.20
2017-11-21T12:14:34.025Z,7.23
2017-11-21T12:17:01.935Z,7.80
2017-11-21T12:19:29.736Z,31.27
2017-11-21T12:21:57.497Z,48.50
2017-11-21T12:24:25.397Z,14.23
2017-11-21T12:26:53.295Z,6.57
2017-11-21T12:29:21.189Z,6.23
2017-11-21T12:31:49.028Z,7.77
2017-11-21T12:34:16.898Z,2.30
2017-11-21T12:36:44.772Z,6.67
2017-11-21T12:39:12.638Z,6.30
2017-11-21T12:41:40.424Z,10.67
2017-11-21T12:44:08.267Z,3.20
2017-11-21T12:46:36.025Z,7.07
2017-11-21T12:49:03.804Z,11.73
2017-11-21T12:51:31.575Z,20.63
2017-11-21T12:53:59.394Z,15.53
2017-11-21T12:56:27.413Z,16.33
2017-11-21T12:58:55.334Z,18.27
2017-11-21T13:01:23.231Z,11.97
2017-11-21T13:03:51.190Z,13.83
2017-11-21T13:06:19.039Z,10.70
2017-11-21T13:08:47.896Z,13.70
2017-11-21T13:11:16.033Z,10.17
2017-11-21T13:13:43.839Z,14.90
2017-11-21T13:16:11.840Z,14.03
2017-11-21T13:18:39.734Z,11.93
2017-11-21T13:21:08.144Z,6.87
2017-11-21T13:23:36.034Z,10.90
2017-11-21T13:26:03.819Z,16.30
2017-11-21T13:28:31.718Z,41.40
2017-11-21T13:30:59.646Z,46.53
2017-11-21T13:33:27.458Z,43.00
2017-11-21T13:35:55.318Z,35.73
2017-11-21T13:38:23.231Z,71.10
2017-11-21T13:40:51.053Z,70.83
2017-11-21T13:43:18.859Z,38.67
2017-11-21T13:45:46.658Z,23.50
2017-11-21T13:48:14.474Z,26.47
2017-11-21T13:50:42.396Z,30.63
2017-11-21T13:53:10.214Z,38.20
2017-11-21T13:55:38.159Z,29.80
2017-11-21T13:58:06.019Z,20.83
2017-11-21T14:00:33.808Z,25.40
2017-11-21T14:03:02.466Z,31.33
2017-11-21T14:05:30.262Z,18.93
2017-11-21T14:07:58.072Z,19.30
2017-11-21T14:10:25.940Z,12.87
2017-11-21T14:12:53.719Z,9.03
2017-11-21T14:15:21.637Z,5.50
2017-11-21T14:17:49.614Z,8.97
2017-11-21T14:20:17.562Z,7.13
2017-11-21T14:22:45.434Z,6.30
2017-11-21T14:25:13.309Z,6.33
2017-11-21T14:27:41.252Z,14.20
2017-11-21T14:30:09.071Z,2.60
2017-11-21T14:32:36.974Z,3.77
2017-11-21T14:35:04.830Z,7.30
2017-11-21T14:37:32.658Z,3.37
2017-11-21T14:40:00.432Z,5.70
2017-11-21T14:42:28.176Z,7.30
2017-11-21T14:44:55.925Z,12.53
2017-11-21T14:47:23.717Z,8.97
2017-11-21T14:49:51.552Z,6.93
2017-11-21T14:52:19.341Z,43.00
2017-11-21T14:54:47.163Z,45.80
2017-11-21T14:57:14.927Z,57.17
2017-11-21T14:59:42.703Z,27.47
2017-11-21T15:02:10.483Z,11.80
2017-11-21T15:04:38.268Z,9.77
2017-11-21T15:07:06.154Z,7.87
2017-11-21T15:09:34.061Z,7.10
2017-11-21T15:12:01.834Z,9.40
2017-11-21T15:14:30.107Z,5.57
2017-11-21T15:16:57.969Z,2.27
2017-11-21T15:19:25.741Z,6.10
2017-11-21T15:21:53.627Z,22.23
2017-11-21T15:24:22.165Z,6.77
2017-11-21T15:26:49.967Z,5.10
2017-11-21T15:29:18.812Z,12.83
2017-11-21T15:31:46.945Z,12.57
2017-11-21T15:34:14.718Z,22.20
2017-11-21T15:36:42.577Z,7.57
2017-11-21T15:39:10.310Z,7.83
2017-11-21T15:41:38.114Z,4.80
2017-11-21T15:44:05.952Z,10.40
2017-11-21T15:46:33.698Z,84.10
2017-11-21T15:49:01.439Z,16.70
2017-11-21T15:51:29.257Z,15.30
2017-11-21T15:53:57.083Z,23.30
2017-11-21T15:56:24.867Z,8.50
2017-11-21T15:58:52.669Z,20.77
2017-11-21T16:01:20.542Z,19.40
2017-11-21T16:03:48.385Z,25.70
2017-11-21T16:06:16.193Z,9.67
2017-11-21T16:08:44.022Z,6.20
2017-11-21T16:11:11.893Z,3.30
2017-11-21T16:13:39.661Z,3.50
2017-11-21T16:16:07.702Z,2.80
2017-11-21T16:18:36.688Z,3.00
2017-11-21T16:21:04.529Z,2.30
2017-11-21T16:23:32.277Z,6.10
2017-11-21T16:26:00.076Z,3.57
2017-11-21T16:28:28.768Z,5.63
2017-11-21T16:30:56.589Z,4.30
2017-11-21T16:33:24.322Z,6.30
2017-11-21T16:35:52.067Z,2.60
2017-11-21T16:38:19.906Z,2.97
2017-11-21T16:40:47.628Z,5.40
2017-11-21T16:43:15.502Z,7.23
2017-11-21T16:45:43.243Z,11.10
2017-11-21T16:48:11.001Z,3.93
2017-11-21T16:50:38.863Z,2.33
2017-11-21T16:53:06.660Z,3.60
2017-11-21T16:55:34.586Z,2.80
2017-11-21T16:58:02.367Z,3.47
2017-11-21T17:00:30.174Z,2.97
2017-11-21T17:02:58.980Z,2.80
2017-11-21T17:05:27.015Z,8.07
2017-11-21T17:07:55.994Z,2.03
2017-11-21T17:10:23.784Z,1.47
2017-11-21T17:12:51.578Z,3.73
2017-11-21T17:15:19.710Z,2.63
2017-11-21T17:17:47.607Z,11.03
2017-11-21T17:20:15.525Z,4.37
2017-11-21T17:22:43.376Z,2.80
2017-11-21T17:25:11.215Z,3.00
2017-11-21T17:27:40.042Z,2.93
2017-11-21T17:30:08.047Z,3.73
2017-11-21T17:32:35.849Z,2.47
2017-11-21T17:35:03.582Z,3.90
2017-11-21T17:37:31.381Z,16.73
2017-11-21T17:40:02.220Z,3.70
2017-11-21T17:42:30.072Z,9.00
2017-11-21T17:44:58.702Z,2.60
2017-11-21T17:47:27.220Z,5.40
2017-11-21T17:49:55.006Z,6.77
2017-11-21T17:52:22.769Z,4.10
2017-11-21T17:54:50.571Z,2.57
2017-11-21T17:57:18.429Z,3.00
2017-11-21T17:59:46.787Z,4.33
2017-11-21T18:02:14.662Z,29.70
2017-11-21T18:04:42.492Z,25.33
2017-11-21T18:07:11.363Z,4.60
2017-11-21T18:09:40.146Z,2.33
2017-11-21T18:12:07.981Z,3.37
2017-11-21T18:14:35.794Z,5.63
2017-11-21T18:17:03.652Z,1.80
2017-11-21T18:19:31.457Z,3.27
2017-11-21T18:21:59.304Z,4.07
2017-11-21T18:24:27.056Z,2.13
2017-11-21T18:26:54.827Z,2.30
2017-11-21T18:29:22.708Z,1.10
2017-11-21T18:31:50.577Z,1.20
2017-11-21T18:34:18.416Z,3.60
2017-11-21T18:36:46.156Z,4.17
2017-11-21T18:39:13.861Z,2.50
2017-11-21T18:41:41.756Z,2.53
2017-11-21T18:44:09.540Z,2.30
2017-11-21T18:46:37.872Z,3.77
2017-11-21T18:49:07.680Z,2.53
2017-11-21T18:51:35.726Z,2.53
2017-11-21T18:54:03.740Z,1.67
2017-11-21T18:56:31.634Z,1.80
2017-11-21T18:58:59.525Z,2.00
2017-11-21T19:01:27.330Z,1.20
2017-11-21T19:03:55.352Z,1.23
2017-11-21T19:06:23.179Z,1.23
2017-11-21T19:08:51.780Z,1.73
2017-11-21T19:11:19.801Z,4.00
2017-11-21T19:13:47.657Z,1.63
2017-11-21T19:16:16.402Z,0.83
2017-11-21T19:18:44.147Z,3.30
2017-11-21T19:21:12.096Z,2.30
2017-11-21T19:23:41.071Z,1.80
2017-11-21T19:26:09.406Z,6.77
2017-11-21T19:28:37.135Z,2.27
2017-11-21T19:31:04.959Z,2.27
2017-11-21T19:33:32.960Z,2.03
2017-11-21T19:36:03.482Z,2.17
2017-11-21T19:38:31.385Z,7.83
2017-11-21T19:40:59.253Z,4.20
2017-11-21T19:43:26.956Z,4.50
2017-11-21T19:45:55.047Z,1.53
2017-11-21T19:48:23.437Z,6.97
2017-11-21T19:50:51.391Z,1.77
2017-11-21T19:53:19.499Z,1.50
2017-11-21T19:55:47.421Z,1.77
2017-11-21T19:58:15.666Z,1.90
2017-11-21T20:00:43.608Z,9.47
2017-11-21T20:03:11.566Z,1.43
2017-11-21T20:05:39.641Z,5.40
2017-11-21T20:08:08.350Z,1.60
2017-11-21T20:10:36.227Z,1.50
2017-11-21T20:13:04.738Z,1.20
2017-11-21T20:15:32.509Z,1.23
2017-11-21T20:18:00.273Z,0.80
2017-11-21T20:20:28.259Z,3.90
2017-11-21T20:22:56.269Z,2.03
2017-11-21T20:25:25.938Z,1.90
2017-11-21T20:27:55.615Z,2.27
2017-11-21T20:30:24.821Z,3.47
2017-11-21T20:32:52.774Z,2.57
2017-11-21T20:35:20.541Z,2.80
2017-11-21T20:37:48.389Z,2.20
2017-11-21T20:40:16.182Z,1.10
2017-11-21T20:42:43.957Z,2.90
2017-11-21T20:45:12.141Z,0.90
2017-11-21T20:47:41.181Z,1.33
2017-11-21T20:50:09.034Z,12.53
2017-11-21T20:52:36.762Z,2.07
2017-11-21T20:55:04.621Z,3.33
2017-11-21T20:57:32.541Z,2.00
2017-11-21T21:00:00.417Z,1.80
2017-11-21T21:02:28.282Z,0.83
2017-11-21T21:04:56.037Z,3.40
2017-11-21T21:07:23.825Z,1.63
2017-11-21T21:09:51.586Z,1.97
2017-11-21T21:12:19.324Z,5.50
2017-11-21T21:14:47.206Z,1.80
2017-11-21T21:17:15.108Z,8.40
2017-11-21T21:19:44.992Z,5.50
2017-11-21T21:22:12.785Z,1.00
2017-11-21T21:24:40.550Z,1.57
2017-11-21T21:30:08.483Z,8.87
2017-11-21T21:32:36.212Z,2.67
2017-11-21T21:35:03.908Z,8.43
2017-11-21T21:37:31.567Z,3.27
2017-11-21T21:39:59.304Z,1.80
2017-11-21T21:42:27.002Z,4.00
2017-11-21T21:44:54.677Z,1.27
2017-11-21T21:47:22.432Z,3.03
2017-11-21T21:49:50.135Z,0.87
2017-11-21T21:52:17.935Z,1.50
2017-11-21T21:54:45.779Z,3.23
2017-11-21T21:57:13.683Z,1.70
2017-11-21T21:59:41.388Z,7.23
2017-11-21T22:02:09.078Z,2.97
2017-11-21T22:04:36.832Z,2.50
2017-11-21T22:07:04.581Z,2.50
2017-11-21T22:09:33.384Z,0.67
2017-11-21T22:12:01.255Z,0.47
2017-11-21T22:14:28.963Z,0.60
2017-11-21T22:16:56.712Z,2.93
2017-11-21T22:19:24.444Z,0.87
2017-11-21T22:21:52.172Z,3.03
2017-11-21T22:24:19.949Z,1.40
2017-11-21T22:26:47.679Z,0.77
2017-11-21T22:29:15.414Z,2.63
2017-11-21T22:31:43.162Z,1.67
2017-11-21T22:34:10.873Z,0.90
2017-11-21T22:36:38.631Z,12.03
2017-11-21T22:39:06.329Z,2.00
2017-11-21T22:41:34.143Z,0.60
2017-11-21T22:44:01.860Z,3.30
2017-11-21T22:46:29.570Z,0.40
2017-11-21T22:48:57.397Z,0.77
2017-11-21T22:51:25.146Z,0.80
2017-11-21T22:53:52.987Z,3.60
2017-11-21T22:56:20.855Z,1.07
2017-11-21T22:58:48.611Z,10.20
2017-11-21T23:01:16.420Z,1.47
2017-11-21T23:03:44.185Z,0.77
2017-11-21T23:06:11.894Z,1.30
2017-11-21T23:08:39.631Z,0.50
2017-11-21T23:11:07.307Z,0.70
2017-11-21T23:13:35.010Z,0.60
2017-11-21T23:16:02.973Z,1.47
2017-11-21T23:18:30.673Z,3.53
2017-11-21T23:20:58.352Z,3.20
2017-11-21T23:23:26.090Z,3.10
2017-11-21T23:25:53.813Z,2.93
2017-11-21T23:28:21.541Z,0.80
2017-11-21T23:30:49.316Z,1.13
2017-11-21T23:33:17.060Z,2.87
2017-11-21T23:35:44.892Z,1.40
2017-11-21T23:38:12.597Z,3.03
2017-11-21T23:40:40.301Z,0.80
2017-11-21T23:43:08.078Z,4.30
2017-11-21T23:45:35.830Z,1.70
2017-11-21T23:48:03.609Z,0.60
2017-11-21T23:50:31.343Z,10.60
2017-11-21T23:52:59.102Z,0.80
2017-11-21T23:55:26.786Z,6.10
2017-11-21T23:57:55.647Z,0.60
